Time;durP1;ratioP1;P1;durP2;ratioP2;P2;SDS_P1;SDS_P2;PMS_P1;PMS_P2;Temp;Humidity;BMP_temperature;BMP_pressure;BME280_temperature;BME280_humidity;BME280_pressure;Samples;Min_cycle;Max_cycle;Signal;HPM_P1;HPM_P2
2023/04/23 00:00:31;;;;;;;1.48;0.50;;;16.60;70.40;;;;;;5033884;28;20107;-74
2023/04/23 00:02:57;;;;;;;1.55;0.45;;;16.60;70.40;;;;;;5034094;28;20038;-73
2023/04/23 00:05:26;;;;;;;1.23;0.52;;;16.60;70.40;;;;;;5033929;28;20488;-74
2023/04/23 00:07:52;;;;;;;2.10;0.40;;;16.60;70.50;;;;;;5034135;28;20021;-74
2023/04/23 00:10:17;;;;;;;1.00;0.60;;;16.60;70.50;;;;;;5033981;28;20044;-74
2023/04/23 00:12:43;;;;;;;0.85;0.40;;;16.60;70.40;;;;;;5033814;28;20026;-73
2023/04/23 00:15:10;;;;;;;1.23;0.57;;;16.60;70.40;;;;;;5034941;28;20400;-74
2023/04/23 00:17:35;;;;;;;0.90;0.50;;;16.60;70.40;;;;;;5034975;28;20491;-74
2023/04/23 00:20:01;;;;;;;1.85;0.73;;;16.60;70.40;;;;;;5034818;28;20029;-74
2023/04/23 00:22:27;;;;;;;1.42;0.45;;;16.60;70.50;;;;;;5034680;28;20392;-74
2023/04/23 00:24:52;;;;;;;1.77;0.50;;;16.60;70.40;;;;;;5034806;28;20129;-74
2023/04/23 00:27:19;;;;;;;0.68;0.30;;;16.60;70.40;;;;;;5034632;28;20057;-73
2023/04/23 00:29:45;;;;;;;0.90;0.40;;;16.60;70.50;;;;;;5034695;28;20025;-74
2023/04/23 00:32:11;;;;;;;0.65;0.40;;;16.60;70.50;;;;;;5034680;28;20029;-74
2023/04/23 00:34:37;;;;;;;1.38;0.47;;;16.60;70.40;;;;;;5034667;28;20017;-74
2023/04/23 00:37:05;;;;;;;1.10;0.50;;;16.50;70.40;;;;;;5034458;28;20369;-74
2023/04/23 00:39:31;;;;;;;0.93;0.50;;;16.60;70.40;;;;;;5034792;28;20025;-74
2023/04/23 00:41:59;;;;;;;1.65;0.50;;;16.60;70.40;;;;;;5034402;28;20083;-74
2023/04/23 00:44:24;;;;;;;1.70;0.60;;;16.60;70.40;;;;;;5034562;28;20025;-74
2023/04/23 00:46:51;;;;;;;1.60;0.47;;;16.60;70.50;;;;;;5034284;28;20021;-74
2023/04/23 00:49:16;;;;;;;1.40;0.70;;;16.60;70.40;;;;;;5033125;28;20099;-74
2023/04/23 00:51:42;;;;;;;1.45;0.57;;;16.60;70.50;;;;;;5034226;28;20065;-74
2023/04/23 00:54:07;;;;;;;1.13;0.55;;;16.60;70.50;;;;;;5034205;28;20064;-74
2023/04/23 00:56:33;;;;;;;1.42;0.52;;;16.50;70.40;;;;;;5033969;28;20041;-74
2023/04/23 00:59:01;;;;;;;0.60;0.40;;;16.50;70.40;;;;;;5016632;28;20036;-74
2023/04/23 01:01:27;;;;;;;1.10;0.35;;;16.50;70.40;;;;;;5032996;28;20087;-74
2023/04/23 01:03:52;;;;;;;1.17;0.50;;;16.60;70.50;;;;;;5032690;28;20119;-74
2023/04/23 01:06:18;;;;;;;0.57;0.30;;;16.50;70.40;;;;;;5032720;28;20037;-74
2023/04/23 01:08:44;;;;;;;2.35;0.77;;;16.60;70.50;;;;;;5033764;28;20506;-74
2023/04/23 01:11:12;;;;;;;2.38;0.70;;;16.60;70.50;;;;;;5032810;28;20018;-74
2023/04/23 01:13:37;;;;;;;1.08;0.60;;;16.50;70.40;;;;;;5032713;28;20018;-74
2023/04/23 01:16:03;;;;;;;0.95;0.55;;;16.50;70.40;;;;;;5032691;28;20028;-74
2023/04/23 01:18:29;;;;;;;1.23;0.57;;;16.60;70.50;;;;;;5033976;28;20032;-74
2023/04/23 01:20:55;;;;;;;1.73;0.63;;;16.60;70.50;;;;;;5033478;28;20507;-74
2023/04/23 01:23:21;;;;;;;1.50;0.77;;;16.50;70.40;;;;;;5016218;28;20503;-74
2023/04/23 01:25:46;;;;;;;1.45;0.77;;;16.50;70.40;;;;;;5033760;28;20017;-74
2023/04/23 01:28:12;;;;;;;1.85;0.50;;;16.60;70.50;;;;;;5016054;28;20079;-74
2023/04/23 01:30:38;;;;;;;0.80;0.52;;;16.60;70.50;;;;;;5032491;28;20026;-74
2023/04/23 01:33:05;;;;;;;1.33;0.60;;;16.60;70.50;;;;;;5016045;28;20031;-74
2023/04/23 01:35:30;;;;;;;0.90;0.50;;;16.50;70.50;;;;;;5032249;28;20014;-74
2023/04/23 01:37:56;;;;;;;1.92;0.57;;;16.60;70.50;;;;;;5033329;28;20021;-74
2023/04/23 01:40:22;;;;;;;1.35;0.40;;;16.60;70.50;;;;;;5015382;28;20025;-74
2023/04/23 01:42:48;;;;;;;1.63;0.82;;;16.60;70.50;;;;;;5032237;28;20033;-74
2023/04/23 01:45:13;;;;;;;1.33;0.60;;;16.50;70.40;;;;;;5015767;28;20032;-74
2023/04/23 01:47:40;;;;;;;1.30;0.55;;;16.50;70.40;;;;;;5033337;28;20029;-74
2023/04/23 01:50:07;;;;;;;1.77;0.70;;;16.60;70.50;;;;;;5032814;28;20066;-74
2023/04/23 01:52:32;;;;;;;1.70;0.60;;;16.60;71.30;;;;;;5033230;28;20052;-74
2023/04/23 01:54:58;;;;;;;0.93;0.60;;;16.50;70.50;;;;;;5033028;28;20442;-74
2023/04/23 01:57:25;;;;;;;1.17;0.70;;;16.60;70.50;;;;;;5033113;28;20048;-74
2023/04/23 01:59:56;;;;;;;0.95;0.50;;;16.50;71.50;;;;;;5032050;28;20029;-74
2023/04/23 02:02:22;;;;;;;1.92;0.63;;;16.60;70.50;;;;;;5016303;28;20487;-74
2023/04/23 02:04:48;;;;;;;0.85;0.55;;;16.60;70.60;;;;;;5032703;28;20107;-73
2023/04/23 02:07:13;;;;;;;0.95;0.43;;;16.50;70.50;;;;;;5031941;28;20057;-74
2023/04/23 02:09:39;;;;;;;1.40;0.50;;;16.60;70.60;;;;;;5033097;28;20075;-74
2023/04/23 02:12:05;;;;;;;1.63;0.75;;;16.60;70.50;;;;;;5032639;28;20029;-74
2023/04/23 02:14:31;;;;;;;0.93;0.50;;;16.50;70.50;;;;;;5032833;28;20029;-74
2023/04/23 02:16:56;;;;;;;1.55;0.70;;;16.60;70.50;;;;;;5031685;28;20097;-74
2023/04/23 02:19:22;;;;;;;1.35;0.57;;;16.50;70.60;;;;;;5032551;28;20029;-74
2023/04/23 02:21:48;;;;;;;1.52;0.70;;;16.50;70.50;;;;;;5031715;28;20039;-74
2023/04/23 02:24:14;;;;;;;0.75;0.38;;;16.50;70.50;;;;;;5032662;28;20503;-74
2023/04/23 02:26:40;;;;;;;1.48;0.60;;;16.50;70.50;;;;;;5031428;28;20083;-74
2023/04/23 02:29:05;;;;;;;1.15;0.63;;;16.50;70.50;;;;;;5032501;28;20032;-74
2023/04/23 02:31:31;;;;;;;1.17;0.40;;;16.50;70.50;;;;;;5032783;28;20488;-74
2023/04/23 02:33:57;;;;;;;1.15;0.50;;;16.50;70.60;;;;;;5032359;28;20083;-74
2023/04/23 02:36:22;;;;;;;0.85;0.50;;;16.50;70.50;;;;;;5032701;28;20083;-74
2023/04/23 02:38:49;;;;;;;1.58;0.52;;;16.50;70.50;;;;;;5031228;28;20094;-74
2023/04/23 02:41:15;;;;;;;0.95;0.55;;;16.50;70.60;;;;;;5032576;28;20496;-74
2023/04/23 02:43:41;;;;;;;2.03;0.68;;;16.50;70.50;;;;;;5031454;28;20049;-74
2023/04/23 02:46:07;;;;;;;1.52;0.57;;;16.50;70.50;;;;;;5032474;28;20094;-74
2023/04/23 02:48:35;;;;;;;0.88;0.50;;;16.50;70.50;;;;;;5031039;28;20099;-74
2023/04/23 02:51:02;;;;;;;1.70;0.65;;;16.50;70.60;;;;;;5031285;28;20021;-74
2023/04/23 02:53:27;;;;;;;1.80;0.85;;;16.50;70.50;;;;;;5034484;28;20048;-73
2023/04/23 02:55:53;;;;;;;1.60;0.70;;;16.50;70.60;;;;;;5035087;28;20131;-74
2023/04/23 02:58:18;;;;;;;1.10;0.43;;;16.50;70.60;;;;;;5035280;28;20084;-74
2023/04/23 03:00:44;;;;;;;2.67;0.70;;;16.50;70.50;;;;;;5036460;28;20025;-74
2023/04/23 03:03:10;;;;;;;1.08;0.55;;;16.50;70.50;;;;;;5035994;28;20554;-74
2023/04/23 03:05:35;;;;;;;1.80;0.65;;;16.50;70.60;;;;;;5035069;28;20033;-74
2023/04/23 03:08:01;;;;;;;0.98;0.55;;;16.50;70.60;;;;;;5036189;28;20496;-74
2023/04/23 03:10:26;;;;;;;1.45;0.70;;;16.50;70.50;;;;;;5036312;28;20030;-74
2023/04/23 03:12:52;;;;;;;1.20;0.32;;;16.50;70.60;;;;;;5036191;28;20056;-74
2023/04/23 03:15:18;;;;;;;1.30;0.52;;;16.50;70.60;;;;;;5036002;28;20053;-74
2023/04/23 03:17:43;;;;;;;0.55;0.35;;;16.50;70.60;;;;;;5034888;28;20021;-74
2023/04/23 03:20:12;;;;;;;1.33;0.40;;;16.50;70.60;;;;;;5036042;28;20033;-74
2023/04/23 03:22:37;;;;;;;0.60;0.40;;;16.50;70.50;;;;;;5034899;28;20079;-74
2023/04/23 03:25:04;;;;;;;2.17;0.50;;;16.50;70.60;;;;;;5034906;28;20022;-74
2023/04/23 03:27:29;;;;;;;0.90;0.43;;;16.50;70.50;;;;;;5034611;28;20017;-74
2023/04/23 03:29:55;;;;;;;1.55;0.70;;;16.50;70.60;;;;;;5035852;28;20515;-74
2023/04/23 03:32:21;;;;;;;1.58;0.63;;;16.50;70.60;;;;;;5034613;28;20025;-74
2023/04/23 03:34:46;;;;;;;1.90;0.65;;;16.50;70.60;;;;;;5035687;28;20032;-74
2023/04/23 03:37:12;;;;;;;1.90;0.50;;;16.50;70.60;;;;;;5034585;28;20025;-74
2023/04/23 03:39:38;;;;;;;1.50;0.50;;;16.50;70.70;;;;;;5035746;28;20033;-74
2023/04/23 03:42:04;;;;;;;1.23;0.50;;;16.50;70.60;;;;;;5035720;28;20112;-74
2023/04/23 03:44:29;;;;;;;0.93;0.50;;;16.50;70.60;;;;;;5035683;28;20025;-74
2023/04/23 03:46:55;;;;;;;1.48;0.60;;;16.50;70.60;;;;;;5035555;28;20507;-73
2023/04/23 03:49:21;;;;;;;0.75;0.47;;;16.50;70.70;;;;;;5034093;28;20034;-74
2023/04/23 03:51:47;;;;;;;0.73;0.40;;;16.50;70.70;;;;;;5034394;28;20100;-74
2023/04/23 03:54:13;;;;;;;0.60;0.43;;;16.50;70.70;;;;;;5034149;28;20516;-74
2023/04/23 03:56:38;;;;;;;1.45;0.50;;;16.50;70.60;;;;;;5035144;28;20042;-74
2023/04/23 03:59:04;;;;;;;1.98;0.55;;;16.50;70.70;;;;;;5017894;28;20053;-74
2023/04/23 04:01:31;;;;;;;0.77;0.40;;;16.40;70.60;;;;;;5033918;28;20115;-74
2023/04/23 04:03:57;;;;;;;0.70;0.38;;;16.40;70.60;;;;;;5034594;28;20171;-74
2023/04/23 04:06:23;;;;;;;1.50;0.60;;;16.50;71.70;;;;;;5034153;28;20447;-74
2023/04/23 04:08:48;;;;;;;0.70;0.30;;;16.40;70.60;;;;;;5035068;28;20026;-74
2023/04/23 04:11:14;;;;;;;0.52;0.43;;;16.40;70.60;;;;;;5035046;28;20029;-74
2023/04/23 04:13:40;;;;;;;0.30;0.20;;;16.50;70.70;;;;;;5035193;28;20296;-74
2023/04/23 04:16:05;;;;;;;1.10;0.40;;;16.50;70.70;;;;;;5034762;28;20100;-74
2023/04/23 04:18:31;;;;;;;1.83;0.52;;;16.50;70.70;;;;;;5035120;28;20028;-74
2023/04/23 04:20:57;;;;;;;0.88;0.40;;;16.50;70.70;;;;;;5035020;28;20403;-74
2023/04/23 04:23:22;;;;;;;0.63;0.40;;;16.50;70.70;;;;;;5034812;28;20027;-74
2023/04/23 04:25:49;;;;;;;0.47;0.30;;;16.50;70.70;;;;;;5034928;28;20049;-74
2023/04/23 04:28:15;;;;;;;0.75;0.50;;;16.40;70.60;;;;;;5034728;28;20434;-74
2023/04/23 04:30:41;;;;;;;0.85;0.40;;;16.50;70.70;;;;;;5016859;28;20034;-74
2023/04/23 04:33:07;;;;;;;1.38;0.30;;;16.50;70.70;;;;;;5034794;28;20076;-74
2023/04/23 04:35:33;;;;;;;0.85;0.45;;;16.40;70.60;;;;;;5033442;28;20395;-73
2023/04/23 04:37:59;;;;;;;0.77;0.47;;;16.50;70.70;;;;;;5033647;28;20029;-74
2023/04/23 04:40:27;;;;;;;0.40;0.35;;;16.50;70.70;;;;;;5034621;28;20040;-74
2023/04/23 04:42:53;;;;;;;0.52;0.25;;;16.50;70.70;;;;;;5034645;28;20494;-74
2023/04/23 04:45:19;;;;;;;1.13;0.43;;;16.40;70.60;;;;;;5033075;28;20021;-74
2023/04/23 04:47:45;;;;;;;0.50;0.40;;;16.50;70.70;;;;;;5033341;28;20029;-73
2023/04/23 04:50:11;;;;;;;0.25;0.25;;;16.40;70.60;;;;;;5034139;28;20044;-73
2023/04/23 04:52:36;;;;;;;0.90;0.40;;;16.50;70.70;;;;;;5034373;28;20025;-73
2023/04/23 04:55:02;;;;;;;0.52;0.40;;;16.50;70.70;;;;;;5033124;28;20530;-73
2023/04/23 04:57:28;;;;;;;1.17;0.57;;;16.50;70.70;;;;;;5034418;28;20105;-74
2023/04/23 04:59:54;;;;;;;0.65;0.40;;;16.40;70.60;;;;;;5033910;28;20487;-73
2023/04/23 05:02:20;;;;;;;1.10;0.30;;;16.50;70.70;;;;;;5034164;28;20021;-74
2023/04/23 05:04:46;;;;;;;0.22;0.22;;;16.40;70.60;;;;;;5032903;28;20029;-74
2023/04/23 05:07:11;;;;;;;0.52;0.30;;;16.50;70.70;;;;;;5032886;28;20029;-74
2023/04/23 05:09:37;;;;;;;0.20;0.17;;;16.40;70.60;;;;;;5032967;28;20029;-74
2023/04/23 05:12:06;;;;;;;1.15;0.40;;;16.40;70.60;;;;;;5033776;28;20048;-74
2023/04/23 05:14:32;;;;;;;1.52;0.43;;;16.40;70.60;;;;;;5032584;28;20057;-74
2023/04/23 05:16:57;;;;;;;0.45;0.30;;;16.40;70.70;;;;;;5033286;28;20053;-74
2023/04/23 05:19:23;;;;;;;0.85;0.40;;;16.40;70.60;;;;;;5033724;28;20053;-73
2023/04/23 05:21:49;;;;;;;1.08;0.52;;;16.40;70.70;;;;;;5033846;28;20100;-73
2023/04/23 05:24:15;;;;;;;1.08;0.57;;;16.40;70.70;;;;;;5032573;28;20079;-73
2023/04/23 05:26:40;;;;;;;0.73;0.40;;;16.40;70.60;;;;;;5033623;28;20092;-73
2023/04/23 05:29:06;;;;;;;0.60;0.30;;;16.40;70.60;;;;;;5033240;28;20061;-74
2023/04/23 05:31:31;;;;;;;0.55;0.40;;;16.40;70.60;;;;;;5033801;28;20027;-74
2023/04/23 05:33:57;;;;;;;0.47;0.28;;;16.40;70.60;;;;;;5032462;28;20030;-74
2023/04/23 05:36:23;;;;;;;0.90;0.43;;;16.40;70.70;;;;;;5033517;28;20098;-74
2023/04/23 05:38:48;;;;;;;0.60;0.40;;;16.40;70.60;;;;;;5033460;28;20529;-73
2023/04/23 05:41:14;;;;;;;0.95;0.40;;;16.40;70.60;;;;;;5033283;28;20044;-73
2023/04/23 05:43:40;;;;;;;1.05;0.35;;;16.40;70.60;;;;;;5033269;28;20101;-73
2023/04/23 05:46:06;;;;;;;0.70;0.40;;;16.40;70.70;;;;;;5032055;28;20156;-74
2023/04/23 05:48:32;;;;;;;0.65;0.43;;;16.40;70.60;;;;;;5033499;28;20104;-74
2023/04/23 05:50:58;;;;;;;0.52;0.22;;;16.40;70.60;;;;;;5033154;28;20041;-74
2023/04/23 05:53:23;;;;;;;0.55;0.32;;;16.40;70.70;;;;;;5031798;28;20022;-74
2023/04/23 05:55:49;;;;;;;0.35;0.20;;;16.40;70.60;;;;;;5031963;28;20037;-73
2023/04/23 05:58:16;;;;;;;0.65;0.30;;;16.40;70.60;;;;;;5032906;28;20032;-73
2023/04/23 06:00:41;;;;;;;0.25;0.20;;;16.40;70.70;;;;;;5033027;28;20029;-73
2023/04/23 06:03:07;;;;;;;1.02;0.40;;;16.40;70.70;;;;;;5031763;28;20072;-74
2023/04/23 06:05:32;;;;;;;0.77;0.30;;;16.40;70.60;;;;;;5032853;28;20480;-73
2023/04/23 06:07:58;;;;;;;0.25;0.20;;;16.40;70.60;;;;;;5032953;28;20032;-73
2023/04/23 06:10:24;;;;;;;0.55;0.30;;;16.40;70.70;;;;;;5032789;28;20022;-73
2023/04/23 06:12:49;;;;;;;0.68;0.35;;;16.40;70.70;;;;;;5032719;28;20025;-74
2023/04/23 06:15:15;;;;;;;0.70;0.40;;;16.40;70.60;;;;;;5032833;28;20495;-73
2023/04/23 06:17:40;;;;;;;0.70;0.20;;;16.40;70.60;;;;;;5032940;28;20028;-73
2023/04/23 06:20:07;;;;;;;0.38;0.30;;;16.40;70.70;;;;;;5032564;28;20037;-74
2023/04/23 06:22:33;;;;;;;0.50;0.30;;;16.40;70.70;;;;;;5031833;28;20029;-74
2023/04/23 06:24:59;;;;;;;0.75;0.40;;;16.40;70.70;;;;;;5032723;28;20030;-74
2023/04/23 06:27:25;;;;;;;0.38;0.25;;;16.40;70.70;;;;;;5032452;28;20423;-73
2023/04/23 06:29:51;;;;;;;0.55;0.40;;;16.40;70.60;;;;;;5031320;28;20111;-74
2023/04/23 06:32:17;;;;;;;0.50;0.35;;;16.40;70.70;;;;;;5031673;28;20472;-73
2023/04/23 06:34:43;;;;;;;0.90;0.28;;;16.40;70.70;;;;;;5031375;28;20029;-73
2023/04/23 06:37:09;;;;;;;0.47;0.40;;;16.40;70.70;;;;;;5032509;28;20159;-73
2023/04/23 06:39:34;;;;;;;0.30;0.25;;;16.40;70.70;;;;;;5032388;28;20025;-74
2023/04/23 06:42:00;;;;;;;0.40;0.25;;;16.40;70.70;;;;;;5032529;28;20029;-74
2023/04/23 06:44:26;;;;;;;0.30;0.30;;;16.40;70.70;;;;;;5032429;28;20021;-74
2023/04/23 06:46:51;;;;;;;0.45;0.20;;;16.40;70.70;;;;;;5031303;28;20044;-73
2023/04/23 06:49:17;;;;;;;0.60;0.20;;;16.40;70.70;;;;;;5032309;28;20105;-74
2023/04/23 06:51:43;;;;;;;0.93;0.40;;;16.40;70.70;;;;;;5032360;28;20494;-74
2023/04/23 06:54:09;;;;;;;0.30;0.22;;;16.40;70.70;;;;;;5032222;28;20537;-74
2023/04/23 06:56:34;;;;;;;0.85;0.20;;;16.40;70.70;;;;;;5032260;28;20049;-74
2023/04/23 06:59:00;;;;;;;0.30;0.30;;;16.40;70.70;;;;;;5032568;28;20025;-74
2023/04/23 07:01:26;;;;;;;0.45;0.22;;;16.40;70.70;;;;;;5032128;28;20072;-73
2023/04/23 07:03:53;;;;;;;0.30;0.20;;;16.40;70.70;;;;;;5032123;28;20079;-73
2023/04/23 07:06:19;;;;;;;0.70;0.38;;;16.40;70.70;;;;;;5031226;28;20112;-73
2023/04/23 07:08:44;;;;;;;0.20;0.20;;;16.40;70.70;;;;;;5030936;28;20104;-73
2023/04/23 07:11:10;;;;;;;0.30;0.22;;;16.40;70.70;;;;;;5031240;28;20057;-73
2023/04/23 07:13:36;;;;;;;0.63;0.30;;;16.40;70.70;;;;;;5031046;28;20025;-74
2023/04/23 07:16:02;;;;;;;0.35;0.20;;;16.40;70.80;;;;;;5032000;28;20484;-74
2023/04/23 07:18:27;;;;;;;0.30;0.15;;;16.40;70.70;;;;;;5032239;28;20060;-74
2023/04/23 07:20:53;;;;;;;0.60;0.30;;;16.40;70.70;;;;;;5032314;28;20072;-73
2023/04/23 07:23:19;;;;;;;0.68;0.20;;;16.40;70.70;;;;;;5031834;28;20053;-73
2023/04/23 07:25:44;;;;;;;0.30;0.20;;;16.40;70.80;;;;;;5032250;28;20078;-74
2023/04/23 07:28:10;;;;;;;0.10;0.08;;;16.40;70.80;;;;;;5031694;28;20511;-74
2023/04/23 07:30:36;;;;;;;0.30;0.20;;;16.40;70.70;;;;;;5032019;28;20025;-73
2023/04/23 07:33:01;;;;;;;0.45;0.20;;;16.40;70.80;;;;;;5031015;28;20106;-74
2023/04/23 07:35:27;;;;;;;0.10;0.10;;;16.40;70.80;;;;;;5032029;28;20151;-73
2023/04/23 07:37:54;;;;;;;0.60;0.30;;;16.40;70.80;;;;;;5032080;28;20096;-73
2023/04/23 07:40:21;;;;;;;0.43;0.17;;;16.30;70.80;;;;;;5035394;28;20037;-74
2023/04/23 07:42:47;;;;;;;0.10;0.10;;;16.30;70.80;;;;;;5034550;28;20026;-74
2023/04/23 07:45:13;;;;;;;0.47;0.30;;;16.40;70.80;;;;;;5034643;28;20041;-74
2023/04/23 07:47:39;;;;;;;0.55;0.20;;;16.30;70.80;;;;;;5035892;28;20036;-74
2023/04/23 07:50:05;;;;;;;1.00;0.60;;;16.30;70.80;;;;;;5034297;28;20112;-73
2023/04/23 07:52:31;;;;;;;0.15;0.10;;;16.40;70.90;;;;;;5035162;28;20017;-73
2023/04/23 07:54:56;;;;;;;0.47;0.40;;;16.30;70.80;;;;;;5035469;28;20048;-73
2023/04/23 07:57:22;;;;;;;0.22;0.15;;;16.30;70.80;;;;;;5034163;28;20021;-73
2023/04/23 07:59:47;;;;;;;0.55;0.28;;;16.40;70.80;;;;;;5034149;28;20056;-73
2023/04/23 08:02:13;;;;;;;0.25;0.17;;;16.40;70.90;;;;;;5035459;28;20416;-74
2023/04/23 08:04:39;;;;;;;0.17;0.13;;;16.40;70.80;;;;;;5035011;28;20472;-73
2023/04/23 08:07:05;;;;;;;0.20;0.20;;;16.30;70.80;;;;;;5034948;28;20025;-73
2023/04/23 08:09:30;;;;;;;0.30;0.20;;;16.30;70.80;;;;;;5035213;28;20099;-73
2023/04/23 08:11:56;;;;;;;0.70;0.40;;;16.30;70.80;;;;;;5034915;28;20484;-73
2023/04/23 08:14:22;;;;;;;1.15;0.30;;;16.30;70.90;;;;;;5035166;28;20025;-73
2023/04/23 08:16:47;;;;;;;1.38;0.20;;;16.30;70.80;;;;;;5033882;28;20105;-73
2023/04/23 08:19:13;;;;;;;0.98;0.30;;;16.30;70.80;;;;;;5034984;28;20069;-74
2023/04/23 08:21:39;;;;;;;0.30;0.28;;;16.30;70.90;;;;;;5034781;28;20501;-73
2023/04/23 08:24:06;;;;;;;0.75;0.30;;;16.30;70.90;;;;;;5034912;28;20109;-73
2023/04/23 08:26:32;;;;;;;0.93;0.35;;;16.30;70.80;;;;;;5034804;28;20018;-73
2023/04/23 08:28:59;;;;;;;0.32;0.25;;;16.30;70.90;;;;;;5033635;28;20033;-73
2023/04/23 08:31:25;;;;;;;0.50;0.38;;;16.30;70.90;;;;;;5033633;28;20112;-73
2023/04/23 08:33:51;;;;;;;0.43;0.20;;;16.30;70.90;;;;;;5034703;28;20143;-74
2023/04/23 08:36:16;;;;;;;0.38;0.30;;;16.30;70.90;;;;;;5034599;28;20018;-73
2023/04/23 08:38:42;;;;;;;0.20;0.20;;;16.30;71.00;;;;;;5034622;28;20388;-73
2023/04/23 08:41:10;;;;;;;0.80;0.32;;;16.30;70.90;;;;;;5033434;28;20018;-73
2023/04/23 08:43:50;;;;;;;1.23;0.35;;;16.30;70.90;;;;;;5016923;28;20038;-73
2023/04/23 08:46:15;;;;;;;0.30;0.28;;;16.30;70.90;;;;;;5017952;28;20035;-73
2023/04/23 08:48:43;;;;;;;1.98;0.45;;;16.30;70.90;;;;;;5033179;28;20535;-73
2023/04/23 08:51:10;;;;;;;0.85;0.40;;;16.30;70.90;;;;;;5017047;28;20060;-73
2023/04/23 08:53:35;;;;;;;0.45;0.20;;;16.30;70.90;;;;;;5033139;28;20032;-73
2023/04/23 08:56:01;;;;;;;0.55;0.17;;;16.30;70.90;;;;;;5016394;28;20046;-73
2023/04/23 08:58:27;;;;;;;0.47;0.25;;;16.30;70.90;;;;;;5016743;28;20022;-73
2023/04/23 09:00:53;;;;;;;0.95;0.20;;;16.30;71.00;;;;;;5016837;28;20049;-73
2023/04/23 09:03:19;;;;;;;0.85;0.30;;;16.30;70.90;;;;;;5016595;28;20017;-73
2023/04/23 09:05:45;;;;;;;0.45;0.22;;;16.30;71.00;;;;;;5032813;28;20025;-74
2023/04/23 09:08:11;;;;;;;0.10;0.10;;;16.30;71.00;;;;;;5033088;28;20480;-74
2023/04/23 09:10:39;;;;;;;0.30;0.30;;;16.30;71.00;;;;;;5032733;28;20032;-74
2023/04/23 09:13:05;;;;;;;0.57;0.20;;;16.30;71.00;;;;;;5032850;28;20033;-74
2023/04/23 09:15:30;;;;;;;0.38;0.30;;;16.30;71.00;;;;;;5032856;28;20025;-74
2023/04/23 09:17:56;;;;;;;0.30;0.30;;;16.30;71.20;;;;;;5032625;28;20370;-73
2023/04/23 09:20:22;;;;;;;0.35;0.30;;;16.30;70.90;;;;;;5016269;28;20029;-73
2023/04/23 09:22:48;;;;;;;0.30;0.20;;;16.30;70.90;;;;;;5032815;28;20033;-73
2023/04/23 09:25:16;;;;;;;1.08;0.40;;;16.30;70.90;;;;;;5032570;28;20045;-73
2023/04/23 09:27:42;;;;;;;0.45;0.20;;;16.30;70.90;;;;;;5032540;28;20026;-74
2023/04/23 09:30:09;;;;;;;0.13;0.13;;;16.30;70.90;;;;;;5016026;28;20032;-73
2023/04/23 09:32:35;;;;;;;0.30;0.20;;;16.20;70.90;;;;;;5016125;28;20502;-74
2023/04/23 09:35:03;;;;;;;0.80;0.20;;;16.30;71.00;;;;;;5033706;28;20014;-73
2023/04/23 09:37:29;;;;;;;0.88;0.35;;;16.30;71.00;;;;;;5016037;28;20037;-73
2023/04/23 09:40:00;;;;;;;0.57;0.28;;;16.30;71.00;;;;;;5032315;28;20392;-73
2023/04/23 09:42:28;;;;;;;0.45;0.20;;;16.30;71.00;;;;;;5016313;28;20506;-73
2023/04/23 09:44:59;;;;;;;0.25;0.20;;;16.30;71.00;;;;;;5033502;28;20024;-73
2023/04/23 09:47:25;;;;;;;0.20;0.20;;;16.30;71.00;;;;;;5033155;28;20037;-73
2023/04/23 09:49:52;;;;;;;0.22;0.20;;;16.30;71.00;;;;;;5033203;28;20029;-73
2023/04/23 09:52:18;;;;;;;0.30;0.30;;;16.30;71.00;;;;;;5033663;28;20100;-74
2023/04/23 09:54:45;;;;;;;0.30;0.30;;;16.20;70.90;;;;;;5031784;28;20120;-73
2023/04/23 09:57:10;;;;;;;0.60;0.35;;;16.20;70.90;;;;;;5031853;28;20491;-74
2023/04/23 09:59:36;;;;;;;0.30;0.30;;;16.20;70.90;;;;;;5032025;28;20026;-74
2023/04/23 10:02:03;;;;;;;0.98;0.30;;;16.20;70.80;;;;;;5032825;28;20029;-73
2023/04/23 10:04:29;;;;;;;0.40;0.40;;;16.20;70.80;;;;;;5031489;28;20511;-73
2023/04/23 10:07:03;;;;;;;0.40;0.40;;;16.20;70.90;;;;;;5031720;28;20033;-73
2023/04/23 10:09:29;;;;;;;0.30;0.30;;;16.20;70.90;;;;;;5031764;28;20028;-73
2023/04/23 10:11:58;;;;;;;0.30;0.30;;;16.20;70.80;;;;;;5031820;28;20021;-73
2023/04/23 10:14:25;;;;;;;0.85;0.47;;;16.20;70.90;;;;;;5031903;28;20079;-73
2023/04/23 10:16:57;;;;;;;0.40;0.40;;;16.20;70.90;;;;;;5015265;28;20021;-73
2023/04/23 10:19:23;;;;;;;0.47;0.47;;;16.20;70.90;;;;;;5031701;28;20030;-73
2023/04/23 10:22:06;;;;;;;0.50;0.45;;;16.20;70.80;;;;;;5031714;28;20029;-73
2023/04/23 10:24:40;;;;;;;0.45;0.45;;;16.20;70.80;;;;;;5016024;28;20038;-73
2023/04/23 10:27:13;;;;;;;0.40;0.40;;;16.20;70.80;;;;;;5015275;28;20025;-73
2023/04/23 10:29:38;;;;;;;;;;;16.20;70.90;;;;;;5016358;28;20052;-73
2023/04/23 10:32:08;;;;;;;0.63;0.60;;;16.20;70.90;;;;;;5031209;28;20371;-73
2023/04/23 10:34:34;;;;;;;0.47;0.32;;;16.20;70.90;;;;;;5015449;28;20026;-73
2023/04/23 10:37:00;;;;;;;1.50;0.47;;;16.20;70.90;;;;;;5032740;28;20028;-73
2023/04/23 10:39:33;;;;;;;0.40;0.40;;;16.20;70.90;;;;;;5031451;28;20102;-74
2023/04/23 10:41:58;;;;;;;;;;;16.20;70.90;;;;;;5031872;28;20549;-73
2023/04/23 10:44:36;;;;;;;0.68;0.68;;;16.20;70.90;;;;;;5031330;28;19908;-73
2023/04/23 10:47:02;;;;;;;0.60;0.60;;;16.20;70.90;;;;;;5016058;28;20060;-73
2023/04/23 10:49:34;;;;;;;0.68;0.68;;;16.20;70.90;;;;;;5031309;28;20053;-73
2023/04/23 10:52:13;;;;;;;0.70;0.70;;;16.20;70.80;;;;;;5032620;28;20048;-73
2023/04/23 10:54:40;;;;;;;0.75;0.75;;;16.20;70.80;;;;;;5015124;28;20124;-73
2023/04/23 10:57:06;;;;;;;0.80;0.80;;;16.20;70.80;;;;;;5031098;28;20025;-73
2023/04/23 10:59:33;;;;;;;0.82;0.68;;;16.20;70.70;;;;;;5032523;28;20033;-73
2023/04/23 11:02:05;;;;;;;0.60;0.60;;;16.20;70.80;;;;;;5032062;28;20404;-73
2023/04/23 11:04:32;;;;;;;0.80;0.80;;;16.20;70.70;;;;;;5032047;28;20067;-73
2023/04/23 11:07:07;;;;;;;0.80;0.80;;;16.20;70.70;;;;;;5031115;28;20179;-73
2023/04/23 11:09:44;;;;;;;2.03;0.80;;;16.20;70.70;;;;;;5031219;28;20541;-73
2023/04/23 11:12:33;;;;;;;0.90;0.90;;;16.20;70.70;;;;;;5031051;28;20028;-73
2023/04/23 11:15:08;;;;;;;1.00;0.90;;;16.20;70.70;;;;;;5032172;28;20388;-74
2023/04/23 11:17:34;;;;;;;0.70;0.70;;;16.20;70.70;;;;;;5019791;28;20029;-73
2023/04/23 11:20:05;;;;;;;1.52;1.05;;;16.20;70.60;;;;;;5036185;28;20070;-73
2023/04/23 11:22:38;;;;;;;1.67;1.40;;;16.20;70.50;;;;;;5036075;28;20021;-73
2023/04/23 11:25:05;;;;;;;1.23;0.90;;;16.20;70.30;;;;;;5019114;28;20022;-73
2023/04/23 11:27:31;;;;;;;1.35;1.00;;;16.20;70.30;;;;;;5034668;28;20044;-73
2023/04/23 11:29:57;;;;;;;1.20;1.10;;;16.20;70.30;;;;;;5035607;28;20026;-73
2023/04/23 11:32:23;;;;;;;2.78;1.17;;;16.20;70.20;;;;;;5035892;28;20021;-73
2023/04/23 11:34:49;;;;;;;1.23;1.13;;;16.20;70.20;;;;;;5034649;28;20022;-73
2023/04/23 11:37:15;;;;;;;1.45;1.10;;;16.20;70.20;;;;;;5035864;28;20036;-73
2023/04/23 11:39:42;;;;;;;1.10;0.93;;;16.20;70.30;;;;;;5034529;28;20029;-73
2023/04/23 11:42:14;;;;;;;1.40;1.30;;;16.20;70.20;;;;;;5034272;28;20029;-73
2023/04/23 11:44:41;;;;;;;1.30;1.20;;;16.20;70.20;;;;;;5017908;28;20391;-73
2023/04/23 11:47:13;;;;;;;0.93;0.93;;;16.20;70.20;;;;;;5018150;28;20084;-73
2023/04/23 11:49:42;;;;;;;;;;;16.20;70.20;;;;;;5034771;28;20026;-74
2023/04/23 11:52:08;;;;;;;1.88;1.40;;;16.20;70.20;;;;;;5035591;28;20318;-73
2023/04/23 11:54:34;;;;;;;1.48;1.30;;;16.20;70.20;;;;;;5033980;28;20091;-73
2023/04/23 11:57:00;;;;;;;1.10;1.10;;;16.20;70.10;;;;;;5034552;28;20023;-73
2023/04/23 11:59:26;;;;;;;1.50;1.33;;;16.20;70.20;;;;;;5017632;28;20037;-73
2023/04/23 12:01:57;;;;;;;1.38;1.27;;;16.20;70.20;;;;;;5017844;28;20021;-73
2023/04/23 12:04:24;;;;;;;1.35;1.25;;;16.20;70.20;;;;;;5017560;28;20032;-73
2023/04/23 12:06:50;;;;;;;1.38;1.20;;;16.20;70.10;;;;;;5034065;28;20044;-73
2023/04/23 12:09:17;;;;;;;1.30;1.20;;;16.20;70.20;;;;;;5034177;28;20096;-73
2023/04/23 12:11:43;;;;;;;1.30;1.20;;;16.20;70.10;;;;;;5034114;28;20018;-73
2023/04/23 12:14:10;;;;;;;1.30;1.08;;;16.20;70.20;;;;;;5035061;28;20046;-73
2023/04/23 12:16:42;;;;;;;1.40;1.30;;;16.20;70.20;;;;;;5017435;28;20092;-73
2023/04/23 12:19:09;;;;;;;1.55;1.10;;;16.20;70.20;;;;;;5034978;28;20021;-73
2023/04/23 12:21:45;;;;;;;1.65;1.25;;;16.20;70.20;;;;;;5034030;28;20036;-73
2023/04/23 12:24:11;;;;;;;1.40;1.30;;;16.20;70.20;;;;;;5033524;28;20021;-73
2023/04/23 12:26:37;;;;;;;1.52;1.40;;;16.20;70.30;;;;;;5033695;28;20041;-73
2023/04/23 12:29:02;;;;;;;1.20;1.10;;;16.20;70.30;;;;;;5033574;28;20080;-73
2023/04/23 12:31:28;;;;;;;1.45;1.10;;;16.10;70.20;;;;;;5034655;28;20492;-73
2023/04/23 12:33:58;;;;;;;1.40;1.30;;;16.20;70.30;;;;;;5034841;28;20021;-73
2023/04/23 12:36:26;;;;;;;1.27;1.17;;;16.20;70.30;;;;;;5033599;28;20024;-73
2023/04/23 12:38:51;;;;;;;2.08;1.20;;;16.20;70.30;;;;;;5033567;28;20087;-73
2023/04/23 12:41:17;;;;;;;1.10;1.02;;;16.20;70.20;;;;;;5034683;28;20025;-73
2023/04/23 12:43:47;;;;;;;1.30;1.20;;;16.20;70.20;;;;;;5034383;28;20030;-73